Time;durP1;ratioP1;P1;durP2;ratioP2;P2;SDS_P1;SDS_P2;PMS_P1;PMS_P2;Temp;Humidity;BMP_temperature;BMP_pressure;BME280_temperature;BME280_humidity;BME280_pressure;Samples;Min_cycle;Max_cycle;Signal;HPM_P1;HPM_P2
2023/07/03 00:01:36;;;;;;;11.93;4.73;;;15.00;99.90;;;;;;5072045;28;20592;-74
2023/07/03 00:04:25;;;;;;;7.70;5.10;;;14.90;99.90;;;;;;5072768;28;20211;-74
2023/07/03 00:07:14;;;;;;;5.60;4.77;;;14.90;99.90;;;;;;5072658;28;20200;-74
2023/07/03 00:10:01;;;;;;;6.30;5.10;;;14.90;99.90;;;;;;5071994;28;20209;-74
2023/07/03 00:12:48;;;;;;;7.17;5.00;;;15.00;99.90;;;;;;5071836;28;20207;-74
2023/07/03 00:15:35;;;;;;;7.00;4.80;;;15.00;99.90;;;;;;5071181;28;20286;-74
2023/07/03 00:18:23;;;;;;;9.30;4.80;;;15.10;99.90;;;;;;5071868;28;20263;-74
2023/07/03 00:21:11;;;;;;;11.93;4.90;;;15.10;99.90;;;;;;5071636;28;20253;-74
2023/07/03 00:23:59;;;;;;;7.17;4.57;;;15.10;99.90;;;;;;5071836;28;20200;-74
2023/07/03 00:26:46;;;;;;;7.07;4.67;;;15.20;99.90;;;;;;5072583;28;20238;-74
2023/07/03 00:29:33;;;;;;;9.90;5.20;;;15.20;99.90;;;;;;5075784;28;20670;-74
2023/07/03 00:32:20;;;;;;;10.60;4.80;;;15.20;99.90;;;;;;5075837;28;20896;-74
2023/07/03 00:35:08;;;;;;;8.87;5.00;;;15.20;99.90;;;;;;5076550;28;20201;-74
2023/07/03 00:37:57;;;;;;;6.00;5.07;;;15.20;99.90;;;;;;5076176;28;20212;-74
2023/07/03 00:40:44;;;;;;;8.50;5.13;;;15.20;99.90;;;;;;5075556;28;20207;-74
2023/07/03 00:43:32;;;;;;;14.40;5.23;;;15.20;99.90;;;;;;5075572;28;20199;-74
2023/07/03 00:46:19;;;;;;;8.80;4.93;;;15.20;99.90;;;;;;5070998;28;20202;-74
2023/07/03 00:49:07;;;;;;;6.60;5.27;;;15.20;99.90;;;;;;5055685;28;20254;-74
2023/07/03 00:51:56;;;;;;;8.40;5.40;;;15.10;99.90;;;;;;5056095;28;20197;-74
2023/07/03 00:54:44;;;;;;;9.33;4.97;;;15.20;99.90;;;;;;5056079;28;20233;-74
2023/07/03 00:57:32;;;;;;;8.57;4.70;;;15.20;99.90;;;;;;5055876;28;20202;-74
2023/07/03 01:00:21;;;;;;;8.77;4.83;;;15.10;99.90;;;;;;5055871;28;20201;-74
2023/07/03 01:03:10;;;;;;;6.57;4.70;;;15.10;99.90;;;;;;5055774;28;20207;-74
2023/07/03 01:05:57;;;;;;;6.73;5.27;;;15.10;99.90;;;;;;5055700;28;20198;-74
2023/07/03 01:08:44;;;;;;;6.73;5.17;;;15.10;99.90;;;;;;5055622;28;20220;-74
2023/07/03 01:11:33;;;;;;;9.73;5.90;;;15.10;99.90;;;;;;5055705;28;20276;-74
2023/07/03 01:14:20;;;;;;;7.20;5.10;;;15.10;99.90;;;;;;5055498;28;20231;-74
2023/07/03 01:17:09;;;;;;;6.87;5.20;;;15.00;99.90;;;;;;5055480;28;20203;-74
2023/07/03 01:19:56;;;;;;;10.33;4.77;;;14.90;99.90;;;;;;5055636;28;20216;-74
2023/07/03 01:22:45;;;;;;;9.60;4.60;;;14.90;99.90;;;;;;5055467;28;20697;-74
2023/07/03 01:25:35;;;;;;;7.77;5.30;;;14.80;99.90;;;;;;5055345;28;20219;-74
2023/07/03 01:28:22;;;;;;;9.73;4.80;;;14.70;99.90;;;;;;5054733;28;20581;-75
2023/07/03 01:31:10;;;;;;;7.97;5.30;;;14.70;99.90;;;;;;5055463;28;20567;-74
2023/07/03 01:33:58;;;;;;;5.77;5.10;;;14.70;99.90;;;;;;5055265;28;20247;-74
2023/07/03 01:36:45;;;;;;;8.63;5.30;;;14.60;99.90;;;;;;5055216;28;20216;-74
2023/07/03 01:39:32;;;;;;;8.40;4.80;;;14.60;99.90;;;;;;5054819;28;20217;-75
2023/07/03 01:42:21;;;;;;;6.07;5.20;;;14.40;99.90;;;;;;5055117;28;20660;-74
2023/07/03 01:45:09;;;;;;;5.40;4.73;;;14.30;99.90;;;;;;5055004;28;20206;-73
2023/07/03 01:47:56;;;;;;;8.50;5.17;;;14.30;99.90;;;;;;5072519;28;20293;-74
2023/07/03 01:50:44;;;;;;;6.97;4.93;;;14.30;99.90;;;;;;5074345;28;20200;-74
2023/07/03 01:53:33;;;;;;;8.20;5.13;;;14.10;99.90;;;;;;5074315;28;20568;-74
2023/07/03 01:56:23;;;;;;;9.20;4.70;;;14.10;99.90;;;;;;5074237;28;20551;-74
2023/07/03 01:59:12;;;;;;;9.77;4.70;;;14.10;99.90;;;;;;5074211;28;20204;-74
2023/07/03 02:02:00;;;;;;;11.67;5.20;;;14.20;99.90;;;;;;5074765;28;20294;-74
2023/07/03 02:04:50;;;;;;;9.37;5.07;;;14.10;99.90;;;;;;5074057;28;20290;-74
2023/07/03 02:07:37;;;;;;;9.50;5.33;;;14.00;99.90;;;;;;5074129;28;20207;-74
2023/07/03 02:10:24;;;;;;;10.03;5.83;;;14.00;99.90;;;;;;5074061;28;20201;-74
2023/07/03 02:13:11;;;;;;;7.07;5.10;;;13.90;99.90;;;;;;5073808;28;20199;-74
2023/07/03 02:16:00;;;;;;;10.53;5.97;;;13.80;99.90;;;;;;5073972;28;20197;-74
2023/07/03 02:18:47;;;;;;;11.50;6.53;;;13.70;99.90;;;;;;5073815;28;20204;-74
2023/07/03 02:21:35;;;;;;;12.20;5.90;;;13.70;99.90;;;;;;5073746;28;20687;-74
2023/07/03 02:24:23;;;;;;;9.33;6.20;;;13.60;99.90;;;;;;5073731;28;20208;-76
2023/07/03 02:27:10;;;;;;;12.30;5.90;;;13.50;99.90;;;;;;5073490;28;20204;-76
2023/07/03 02:29:57;;;;;;;8.57;5.90;;;13.50;99.90;;;;;;5073616;28;20566;-75
2023/07/03 02:32:46;;;;;;;9.23;6.10;;;13.40;99.90;;;;;;5073583;28;20196;-75
2023/07/03 02:35:33;;;;;;;9.73;6.27;;;13.40;99.90;;;;;;5074048;28;20283;-76
2023/07/03 02:38:20;;;;;;;9.53;6.63;;;13.30;99.90;;;;;;5073504;28;20601;-76
2023/07/03 02:41:07;;;;;;;11.57;7.00;;;13.30;99.90;;;;;;5073228;28;20205;-75
2023/07/03 02:43:54;;;;;;;13.77;7.23;;;13.20;99.90;;;;;;5073334;28;20573;-76
2023/07/03 02:46:42;;;;;;;14.33;6.83;;;13.20;99.90;;;;;;5065723;28;20687;-76
2023/07/03 02:49:31;;;;;;;14.40;7.73;;;13.10;99.90;;;;;;5052939;28;20236;-76
2023/07/03 02:52:18;;;;;;;13.93;7.63;;;13.10;99.90;;;;;;5053824;28;20216;-76
2023/07/03 02:55:06;;;;;;;14.03;8.30;;;13.10;99.90;;;;;;5053691;28;20201;-76
2023/07/03 02:57:54;;;;;;;13.07;7.77;;;13.10;99.90;;;;;;5053722;28;20209;-76
2023/07/03 03:00:42;;;;;;;11.30;7.57;;;13.10;99.90;;;;;;5053560;28;20204;-75
2023/07/03 03:03:29;;;;;;;9.70;6.73;;;13.00;99.90;;;;;;5053801;28;20206;-76
2023/07/03 03:06:18;;;;;;;16.70;7.40;;;12.90;99.90;;;;;;5053559;28;20692;-76
2023/07/03 03:09:06;;;;;;;11.13;7.00;;;12.90;99.90;;;;;;5053344;28;20223;-76
2023/07/03 03:11:53;;;;;;;11.43;7.53;;;12.90;99.90;;;;;;5053376;28;20253;-76
2023/07/03 03:14:40;;;;;;;12.47;7.07;;;13.00;99.90;;;;;;5053406;28;20293;-76
2023/07/03 03:17:27;;;;;;;10.30;6.60;;;13.00;99.90;;;;;;5053268;28;20738;-76
2023/07/03 03:20:14;;;;;;;15.07;8.77;;;13.00;99.90;;;;;;5053203;28;20199;-76
2023/07/03 03:23:03;;;;;;;12.20;8.00;;;13.00;99.90;;;;;;5053200;28;20695;-76
2023/07/03 03:25:50;;;;;;;14.20;9.37;;;12.90;99.90;;;;;;5053181;28;20671;-76
2023/07/03 03:28:37;;;;;;;16.37;8.57;;;13.00;99.90;;;;;;5052977;28;20219;-75
2023/07/03 03:31:24;;;;;;;13.00;9.03;;;13.00;99.90;;;;;;5052961;28;20760;-76
2023/07/03 03:34:12;;;;;;;15.53;8.70;;;13.00;99.90;;;;;;5053287;28;20206;-75
2023/07/03 03:36:59;;;;;;;17.13;8.87;;;13.00;99.90;;;;;;5052945;28;20302;-75
2023/07/03 03:39:48;;;;;;;15.07;9.27;;;13.10;99.90;;;;;;5052836;28;20227;-76
2023/07/03 03:42:35;;;;;;;14.47;9.20;;;13.10;99.90;;;;;;5052812;28;20680;-76
2023/07/03 03:45:22;;;;;;;17.10;10.30;;;13.20;99.90;;;;;;5052746;28;20190;-75
2023/07/03 03:48:10;;;;;;;17.57;12.00;;;13.30;99.90;;;;;;5032293;28;20208;-76
2023/07/03 03:50:57;;;;;;;16.17;9.17;;;13.40;99.90;;;;;;5032828;28;20205;-75
2023/07/03 03:53:44;;;;;;;17.20;10.43;;;13.40;99.90;;;;;;5032311;28;20204;-75
2023/07/03 03:56:33;;;;;;;16.20;11.40;;;13.50;99.90;;;;;;5032129;28;20276;-75
2023/07/03 03:59:21;;;;;;;14.80;10.53;;;13.50;99.90;;;;;;5032576;28;20755;-75
2023/07/03 04:02:08;;;;;;;18.23;11.23;;;13.60;99.90;;;;;;5032606;28;20209;-75
2023/07/03 04:04:56;;;;;;;19.83;11.33;;;13.70;99.90;;;;;;5032667;28;20661;-75
2023/07/03 04:07:43;;;;;;;17.07;11.57;;;13.90;99.90;;;;;;5032606;28;20295;-75
2023/07/03 04:10:30;;;;;;;17.77;11.50;;;14.20;99.90;;;;;;5032458;28;20363;-75
2023/07/03 04:13:19;;;;;;;20.23;10.97;;;14.40;99.90;;;;;;5031471;28;20208;-75
2023/07/03 04:16:07;;;;;;;15.03;10.20;;;14.50;99.90;;;;;;5031354;28;20194;-75
2023/07/03 04:18:54;;;;;;;16.50;10.60;;;14.60;99.90;;;;;;5032494;28;20198;-75
2023/07/03 04:21:41;;;;;;;18.73;9.73;;;14.70;99.90;;;;;;5032445;28;20664;-75
2023/07/03 04:24:28;;;;;;;12.77;9.87;;;14.80;99.90;;;;;;5033118;28;20229;-75
2023/07/03 04:27:15;;;;;;;20.90;12.20;;;14.90;99.90;;;;;;5031646;28;20201;-75
2023/07/03 04:30:05;;;;;;;22.43;14.77;;;15.00;99.90;;;;;;5032230;28;20239;-75
2023/07/03 04:32:54;;;;;;;17.87;12.77;;;15.10;99.90;;;;;;5031366;28;20579;-75
2023/07/03 04:35:41;;;;;;;25.33;15.30;;;15.30;99.90;;;;;;5032304;28;20676;-75
2023/07/03 04:38:29;;;;;;;22.50;13.10;;;15.40;99.90;;;;;;5032226;28;20305;-75
2023/07/03 04:41:17;;;;;;;22.77;13.33;;;15.50;99.90;;;;;;5032188;28;20237;-75
2023/07/03 04:44:06;;;;;;;21.47;11.90;;;15.60;99.90;;;;;;5032196;28;20202;-75
2023/07/03 04:46:55;;;;;;;14.70;11.10;;;15.70;99.90;;;;;;5050313;28;20651;-75
2023/07/03 04:49:42;;;;;;;17.17;11.00;;;15.80;99.90;;;;;;5071864;28;20224;-75
2023/07/03 04:52:29;;;;;;;14.73;10.83;;;16.00;99.90;;;;;;5072110;28;20247;-75
2023/07/03 04:55:17;;;;;;;16.50;10.10;;;16.10;99.90;;;;;;5072004;28;20262;-76
2023/07/03 04:58:05;;;;;;;10.70;8.40;;;16.20;99.90;;;;;;5070264;28;20220;-75
2023/07/03 05:00:52;;;;;;;13.23;8.57;;;16.20;99.90;;;;;;5071479;28;20222;-76
2023/07/03 05:03:41;;;;;;;12.43;8.43;;;16.30;99.90;;;;;;5071429;28;20197;-76
2023/07/03 05:06:29;;;;;;;13.90;8.60;;;16.40;99.90;;;;;;5071395;28;20571;-75
2023/07/03 05:09:16;;;;;;;20.37;8.47;;;16.50;99.90;;;;;;5071804;28;20223;-75
2023/07/03 05:12:03;;;;;;;11.50;7.90;;;16.70;99.90;;;;;;5071980;28;20232;-75
2023/07/03 05:14:51;;;;;;;11.93;7.77;;;16.80;99.90;;;;;;5075577;28;20323;-75
2023/07/03 05:17:38;;;;;;;10.90;7.20;;;16.90;99.90;;;;;;5075057;28;20283;-75
2023/07/03 05:20:28;;;;;;;9.50;6.97;;;17.00;99.90;;;;;;5074980;28;20573;-76
2023/07/03 05:23:15;;;;;;;9.07;6.63;;;17.10;99.90;;;;;;5074745;28;20198;-76
2023/07/03 05:26:02;;;;;;;13.57;6.70;;;17.20;99.90;;;;;;5074783;28;20292;-75
2023/07/03 05:28:50;;;;;;;10.17;6.70;;;17.30;99.90;;;;;;5075665;28;20683;-75
2023/07/03 05:31:37;;;;;;;12.83;6.33;;;17.30;99.90;;;;;;5074885;28;20205;-76
2023/07/03 05:34:24;;;;;;;12.50;5.77;;;17.40;99.90;;;;;;5074751;28;20202;-76
2023/07/03 05:37:13;;;;;;;10.20;5.70;;;17.50;99.90;;;;;;5075093;28;20738;-76
2023/07/03 05:40:00;;;;;;;10.27;5.77;;;17.60;99.90;;;;;;5075382;28;20224;-76
2023/07/03 05:42:47;;;;;;;11.60;5.77;;;17.80;99.90;;;;;;5075133;28;20201;-76
2023/07/03 05:45:34;;;;;;;10.63;5.70;;;17.90;99.90;;;;;;5074434;28;20209;-75
2023/07/03 05:48:21;;;;;;;13.13;5.87;;;18.00;99.90;;;;;;5074236;28;20289;-76
2023/07/03 05:51:09;;;;;;;12.13;5.33;;;18.10;99.90;;;;;;5074865;28;20805;-75
2023/07/03 05:53:57;;;;;;;7.63;4.93;;;18.20;99.90;;;;;;5074442;28;20207;-75
2023/07/03 05:56:55;;;;;;;10.67;4.87;;;18.30;99.90;;;;;;5074286;28;20207;-76
2023/07/03 05:59:43;;;;;;;8.37;5.00;;;18.50;99.90;;;;;;5074818;28;20626;-76
2023/07/03 06:02:30;;;;;;;7.80;4.97;;;18.50;99.90;;;;;;5074272;28;20199;-76
2023/07/03 06:05:17;;;;;;;11.93;5.20;;;18.70;99.90;;;;;;5074152;28;20240;-75
2023/07/03 06:08:05;;;;;;;9.47;4.47;;;18.90;99.90;;;;;;5074060;28;20199;-76
2023/07/03 06:10:53;;;;;;;6.27;4.40;;;19.00;99.90;;;;;;5074502;28;20215;-76
2023/07/03 06:13:41;;;;;;;7.73;4.47;;;19.10;99.90;;;;;;5074023;28;20283;-74
2023/07/03 06:16:30;;;;;;;6.17;4.20;;;19.10;99.90;;;;;;5074509;28;20197;-74
2023/07/03 06:19:18;;;;;;;10.30;4.57;;;19.10;99.90;;;;;;5074405;28;20199;-76
2023/07/03 06:22:05;;;;;;;9.10;4.77;;;19.10;99.90;;;;;;5073918;28;20251;-76
2023/07/03 06:24:53;;;;;;;5.80;4.43;;;19.30;99.90;;;;;;5073476;28;20629;-76
2023/07/03 06:27:41;;;;;;;7.97;4.87;;;19.40;99.90;;;;;;5073775;28;20215;-76
2023/07/03 06:30:28;;;;;;;6.50;4.70;;;19.60;99.90;;;;;;5073583;28;20587;-75
2023/07/03 06:33:16;;;;;;;6.87;4.33;;;19.60;99.90;;;;;;5073472;28;20650;-75
2023/07/03 06:36:03;;;;;;;9.63;4.67;;;19.80;99.90;;;;;;5073907;28;20651;-75
2023/07/03 06:38:52;;;;;;;5.90;4.30;;;20.00;99.90;;;;;;5073956;28;20354;-75
2023/07/03 06:41:40;;;;;;;7.30;4.80;;;20.20;99.90;;;;;;5073353;28;20566;-76
2023/07/03 06:44:28;;;;;;;7.57;4.33;;;20.30;99.90;;;;;;5073616;28;20335;-76
2023/07/03 06:47:15;;;;;;;5.97;4.17;;;20.50;99.90;;;;;;5061558;28;20618;-76
2023/07/03 06:50:03;;;;;;;7.97;4.30;;;20.70;99.90;;;;;;5053649;28;20316;-78
2023/07/03 06:52:50;;;;;;;6.33;4.13;;;20.80;99.90;;;;;;5053724;28;20236;-76
2023/07/03 06:55:37;;;;;;;6.73;3.77;;;20.70;99.90;;;;;;5053775;28;20684;-75
2023/07/03 06:58:24;;;;;;;5.17;3.80;;;20.80;99.90;;;;;;5053730;28;20270;-76
2023/07/03 07:01:13;;;;;;;5.83;3.83;;;21.00;99.90;;;;;;5053515;28;20208;-76
2023/07/03 07:04:02;;;;;;;12.57;4.10;;;21.10;99.90;;;;;;5054049;28;20605;-76
2023/07/03 07:06:49;;;;;;;7.63;3.87;;;21.00;99.90;;;;;;5053647;28;20201;-76
2023/07/03 07:09:36;;;;;;;8.57;3.43;;;21.00;99.90;;;;;;5053345;28;20692;-75
2023/07/03 07:12:23;;;;;;;9.90;4.07;;;21.10;99.90;;;;;;5053456;28;20207;-75
2023/07/03 07:15:11;;;;;;;8.87;3.63;;;21.20;99.90;;;;;;5053323;28;20205;-76
2023/07/03 07:18:00;;;;;;;7.77;4.00;;;21.40;99.90;;;;;;5053331;28;20216;-75
2023/07/03 07:20:47;;;;;;;6.83;3.57;;;21.40;99.90;;;;;;5053534;28;20259;-79
2023/07/03 07:23:34;;;;;;;7.43;4.10;;;21.30;99.90;;;;;;5053196;28;20204;-75
2023/07/03 07:26:21;;;;;;;20.43;3.90;;;21.50;99.90;;;;;;5053149;28;20204;-76
2023/07/03 07:29:09;;;;;;;11.90;4.13;;;21.40;99.90;;;;;;5053018;28;20285;-75
2023/07/03 07:31:56;;;;;;;9.87;3.43;;;21.20;99.90;;;;;;5053615;28;20227;-73
2023/07/03 07:34:45;;;;;;;6.90;3.83;;;21.20;99.90;;;;;;5052996;28;20660;-77
2023/07/03 07:37:32;;;;;;;5.77;3.70;;;21.50;99.90;;;;;;5052736;28;20656;-78
2023/07/03 07:40:20;;;;;;;12.03;3.93;;;21.60;99.90;;;;;;5053528;28;20610;-75
2023/07/03 07:43:07;;;;;;;11.97;3.93;;;21.70;99.90;;;;;;5052824;28;20207;-74
2023/07/03 07:45:54;;;;;;;6.60;3.80;;;22.00;99.90;;;;;;5053083;28;20233;-75
2023/07/03 07:48:41;;;;;;;9.10;3.77;;;22.00;99.90;;;;;;5071966;28;20262;-76
2023/07/03 07:51:30;;;;;;;8.03;3.10;;;22.20;99.90;;;;;;5072042;28;20235;-77
2023/07/03 07:54:17;;;;;;;10.37;3.50;;;22.40;99.90;;;;;;5072084;28;20208;-77
2023/07/03 07:57:05;;;;;;;8.83;3.10;;;22.40;99.90;;;;;;5072090;28;20207;-74
2023/07/03 07:59:52;;;;;;;6.57;3.10;;;22.50;99.90;;;;;;5072579;28;20243;-76
2023/07/03 08:02:40;;;;;;;10.00;2.83;;;22.40;99.90;;;;;;5072625;28;20196;-78
2023/07/03 08:05:27;;;;;;;10.87;3.47;;;22.00;95.70;;;;;;5071987;28;20228;-74
2023/07/03 08:08:15;;;;;;;5.63;3.40;;;21.70;98.70;;;;;;5072047;28;20204;-76
2023/07/03 08:11:05;;;;;;;10.93;3.40;;;21.80;99.20;;;;;;5071855;28;20714;-76
2023/07/03 08:13:52;;;;;;;9.77;3.57;;;21.90;99.90;;;;;;5071832;28;20204;-74
2023/07/03 08:16:39;;;;;;;7.73;3.50;;;21.90;99.90;;;;;;5072496;28;20227;-78
2023/07/03 08:19:27;;;;;;;9.50;3.57;;;22.20;97.10;;;;;;5071708;28;20209;-76
2023/07/03 08:22:14;;;;;;;8.77;3.63;;;22.20;96.80;;;;;;5072630;28;20203;-75
2023/07/03 08:25:03;;;;;;;6.97;3.70;;;22.20;95.30;;;;;;5071913;28;20196;-76
2023/07/03 08:27:50;;;;;;;8.27;3.97;;;22.40;99.30;;;;;;5072336;28;20269;-75
2023/07/03 08:30:37;;;;;;;7.70;4.10;;;22.40;97.90;;;;;;5071614;28;20683;-73
2023/07/03 08:33:25;;;;;;;8.53;4.30;;;22.70;91.60;;;;;;5071662;28;20201;-74
2023/07/03 08:36:12;;;;;;;7.57;4.40;;;22.70;90.60;;;;;;5071743;28;20557;-78
2023/07/03 08:39:00;;;;;;;10.67;5.20;;;23.00;85.20;;;;;;5071517;28;20220;-79
2023/07/03 08:41:51;;;;;;;11.33;5.17;;;23.30;85.90;;;;;;5071934;28;20243;-78
2023/07/03 08:44:38;;;;;;;18.95;6.00;;;23.60;88.70;;;;;;5071679;28;20201;-78
2023/07/03 08:47:27;;;;;;;12.38;5.55;;;23.70;90.10;;;;;;5057983;28;20251;-73
2023/07/03 08:50:17;;;;;;;12.63;6.20;;;23.40;75.20;;;;;;5055969;28;20225;-77
2023/07/03 08:53:05;;;;;;;9.45;5.43;;;23.30;79.00;;;;;;5056011;28;20223;-77
2023/07/03 08:55:53;;;;;;;11.15;5.40;;;23.50;78.40;;;;;;5056041;28;20237;-77
2023/07/03 08:58:42;;;;;;;12.77;6.10;;;22.80;73.00;;;;;;5055970;28;20201;-74
2023/07/03 09:01:32;;;;;;;15.87;6.87;;;22.40;76.60;;;;;;5055893;28;20197;-77
2023/07/03 09:04:35;;;;;;;15.67;7.50;;;22.50;77.20;;;;;;5055916;28;20280;-77
2023/07/03 09:07:25;;;;;;;15.67;6.70;;;22.40;73.30;;;;;;5055659;28;20224;-78
2023/07/03 09:10:14;;;;;;;19.70;7.70;;;22.80;63.90;;;;;;5055654;28;20316;-74
2023/07/03 09:13:06;;;;;;;19.03;7.47;;;23.00;63.00;;;;;;5055687;28;20197;-74
2023/07/03 09:15:56;;;;;;;15.87;7.23;;;22.60;63.80;;;;;;5055711;28;20208;-78
2023/07/03 09:18:45;;;;;;;16.93;7.30;;;22.30;65.50;;;;;;5055648;28;20236;-75
2023/07/03 09:21:33;;;;;;;13.73;7.20;;;22.30;70.00;;;;;;5055537;28;20194;-77
2023/07/03 09:24:21;;;;;;;19.10;6.77;;;22.30;62.80;;;;;;5055568;28;20282;-77
2023/07/03 09:27:11;;;;;;;16.07;7.70;;;22.30;64.80;;;;;;5055337;28;20197;-74
2023/07/03 09:30:00;;;;;;;20.37;7.30;;;22.30;65.80;;;;;;5055615;28;20679;-78
2023/07/03 09:32:49;;;;;;;17.10;7.60;;;22.40;65.00;;;;;;5055370;28;20197;-72
2023/07/03 09:35:39;;;;;;;18.30;8.50;;;22.80;67.20;;;;;;5055324;28;20225;-73
2023/07/03 09:38:27;;;;;;;14.63;7.53;;;22.90;60.60;;;;;;5055190;28;20221;-74
2023/07/03 09:41:14;;;;;;;16.73;7.20;;;22.50;63.50;;;;;;5054783;28;20601;-74
2023/07/03 09:44:03;;;;;;;20.20;8.10;;;22.40;62.90;;;;;;5054107;28;20197;-73
2023/07/03 09:46:50;;;;;;;17.53;7.80;;;22.30;63.90;;;;;;5055907;28;20266;-73
2023/07/03 09:49:38;;;;;;;19.23;8.10;;;22.10;63.50;;;;;;5054875;28;20236;-76
2023/07/03 09:52:26;;;;;;;15.93;7.50;;;22.40;65.40;;;;;;5054983;28;20201;-74
2023/07/03 09:55:13;;;;;;;19.13;7.87;;;22.70;65.60;;;;;;5054879;28;20201;-74
2023/07/03 09:58:00;;;;;;;16.90;7.57;;;22.30;63.30;;;;;;5054895;28;20687;-73
2023/07/03 10:00:49;;;;;;;19.87;8.00;;;22.00;63.30;;;;;;5054833;28;20209;-75
2023/07/03 10:03:36;;;;;;;14.97;7.30;;;22.50;69.00;;;;;;5054771;28;20201;-74
2023/07/03 10:06:25;;;;;;;19.10;7.53;;;23.20;65.90;;;;;;5054703;28;20203;-72
2023/07/03 10:09:17;;;;;;;19.20;8.00;;;23.00;59.90;;;;;;5053539;28;20442;-73
2023/07/03 10:12:09;;;;;;;15.97;7.60;;;23.30;62.50;;;;;;5054542;28;20217;-77
2023/07/03 10:14:57;;;;;;;17.95;7.93;;;24.00;63.20;;;;;;5054547;28;20194;-76
2023/07/03 10:17:47;;;;;;;18.17;8.95;;;24.00;59.20;;;;;;5054496;28;20579;-74
2023/07/03 10:20:36;;;;;;;19.80;8.40;;;23.50;59.70;;;;;;5054451;28;20205;-78
2023/07/03 10:23:27;;;;;;;17.30;8.30;;;23.80;59.30;;;;;;5054288;28;20220;-74
2023/07/03 10:26:16;;;;;;;20.10;7.47;;;23.80;59.10;;;;;;5054337;28;20229;-78
2023/07/03 10:29:06;;;;;;;20.00;8.05;;;24.10;56.00;;;;;;5054265;28;20209;-77
2023/07/03 10:31:55;;;;;;;19.17;8.15;;;24.20;59.40;;;;;;5054141;28;20220;-77
2023/07/03 10:34:45;;;;;;;20.60;8.60;;;24.10;56.10;;;;;;5054227;28;20644;-77
2023/07/03 10:37:50;;;;;;;18.55;8.50;;;24.40;56.50;;;;;;5054105;28;20575;-73
2023/07/03 10:40:41;;;;;;;19.50;8.55;;;24.40;54.90;;;;;;5054118;28;20323;-73
2023/07/03 10:43:30;;;;;;;19.75;8.48;;;24.30;62.40;;;;;;5054015;28;20254;-78
2023/07/03 10:46:21;;;;;;;20.70;8.98;;;23.40;58.30;;;;;;5058069;28;20196;-78
2023/07/03 10:49:12;;;;;;;21.65;8.77;;;23.30;59.60;;;;;;5073162;28;20315;-78
2023/07/03 10:52:05;;;;;;;18.47;8.83;;;23.10;59.30;;;;;;5073259;28;20223;-78
2023/07/03 10:54:56;;;;;;;17.47;8.27;;;23.20;58.80;;;;;;5073780;28;20741;-79
2023/07/03 10:57:50;;;;;;;15.90;8.00;;;23.10;59.10;;;;;;5073140;28;20192;-78
2023/07/03 11:00:42;;;;;;;16.30;7.63;;;23.80;59.10;;;;;;5073095;28;20189;-73
2023/07/03 11:03:33;;;;;;;21.30;8.57;;;24.00;54.90;;;;;;5073022;28;20250;-72
2023/07/03 11:06:25;;;;;;;16.65;7.80;;;24.20;56.50;;;;;;5073575;28;20203;-72
2023/07/03 11:09:15;;;;;;;16.15;7.82;;;24.10;57.10;;;;;;5072848;28;20201;-78
2023/07/03 11:12:06;;;;;;;15.55;7.78;;;24.70;56.60;;;;;;5072180;28;20251;-72
2023/07/03 11:15:14;;;;;;;17.98;6.95;;;24.20;53.00;;;;;;5072718;28;20239;-73
2023/07/03 11:18:09;;;;;;;20.48;7.75;;;23.80;55.10;;;;;;5072694;28;20199;-78
2023/07/03 11:21:02;;;;;;;17.40;7.45;;;23.90;53.70;;;;;;5072568;28;20197;-75
2023/07/03 11:23:53;;;;;;;20.55;7.88;;;23.90;56.30;;;;;;5072520;28;20314;-72
2023/07/03 11:26:41;;;;;;;17.85;6.97;;;23.90;54.80;;;;;;5072616;28;20214;-74
2023/07/03 11:29:28;;;;;;;18.23;8.20;;;24.30;54.30;;;;;;5072514;28;20216;-74
2023/07/03 11:32:18;;;;;;;18.30;7.50;;;24.50;53.70;;;;;;5072296;28;20243;-71
2023/07/03 11:35:08;;;;;;;14.75;7.90;;;23.60;53.00;;;;;;5073075;28;20733;-74
2023/07/03 11:38:01;;;;;;;15.10;7.35;;;23.60;54.50;;;;;;5072927;28;20228;-71
2023/07/03 11:41:18;;;;;;;17.70;7.40;;;24.00;53.80;;;;;;5072347;28;20200;-70
2023/07/03 11:44:16;;;;;;;16.17;7.07;;;24.30;54.30;;;;;;5010583;28;20206;-71
2023/07/03 11:47:06;;;;;;;21.95;6.90;;;24.40;56.00;;;;;;5061029;28;20216;-74
2023/07/03 11:49:58;;;;;;;20.50;8.23;;;25.20;53.90;;;;;;5051958;28;20229;-71
2023/07/03 11:52:47;;;;;;;23.35;7.70;;;25.10;58.10;;;;;;5052657;28;20708;-74
2023/07/03 11:55:36;;;;;;;20.85;7.85;;;24.60;52.80;;;;;;5052695;28;20667;-73
2023/07/03 11:58:25;;;;;;;15.90;5.93;;;24.40;55.30;;;;;;5052680;28;20209;-74
2023/07/03 12:01:29;;;;;;;20.30;8.85;;;24.90;52.90;;;;;;5051935;28;20228;-73
2023/07/03 12:04:49;;;;;;;15.57;7.07;;;24.90;53.70;;;;;;5052613;28;20211;-72
2023/07/03 12:07:50;;;;;;;15.38;6.90;;;24.30;53.30;;;;;;5053122;28;20201;-74
2023/07/03 12:10:46;;;;;;;20.27;7.80;;;24.30;53.10;;;;;;5052445;28;20571;-74
2023/07/03 12:13:45;;;;;;;17.60;7.60;;;24.30;55.10;;;;;;5052459;28;20197;-74
2023/07/03 12:16:34;;;;;;;14.77;6.97;;;24.60;54.50;;;;;;5052440;28;20197;-71
2023/07/03 12:19:22;;;;;;;17.98;8.38;;;24.40;54.20;;;;;;5052336;28;20201;-71
2023/07/03 12:22:12;;;;;;;16.50;7.80;;;24.30;54.80;;;;;;5051897;28;20200;-70
2023/07/03 12:25:04;;;;;;;14.85;7.70;;;24.90;54.80;;;;;;5052375;28;20201;-73
2023/07/03 12:27:51;;;;;;;16.55;6.88;;;25.10;52.90;;;;;;5051355;28;20262;-74
2023/07/03 12:30:38;;;;;;;22.45;8.40;;;25.20;52.00;;;;;;5052281;28;20243;-72
2023/07/03 12:33:26;;;;;;;17.38;7.85;;;24.90;56.20;;;;;;5052216;28;20255;-73
2023/07/03 12:36:13;;;;;;;13.75;6.97;;;25.20;57.40;;;;;;5052316;28;20201;-76
2023/07/03 12:39:01;;;;;;;21.77;7.65;;;25.70;53.70;;;;;;5052697;28;20347;-76
2023/07/03 12:41:49;;;;;;;17.13;7.93;;;25.10;52.20;;;;;;5052414;28;20616;-75
2023/07/03 12:44:36;;;;;;;18.02;7.47;;;24.60;53.60;;;;;;5052202;28;20193;-72
2023/07/03 12:47:24;;;;;;;14.82;7.68;;;24.60;53.10;;;;;;5065299;28;20200;-71
2023/07/03 12:50:15;;;;;;;16.63;7.68;;;24.30;52.90;;;;;;5071426;28;20232;-72
2023/07/03 12:53:03;;;;;;;17.63;7.45;;;24.60;56.80;;;;;;5071598;28;20217;-73
2023/07/03 12:55:51;;;;;;;16.27;7.93;;;25.00;57.10;;;;;;5071524;28;20196;-75
2023/07/03 12:58:40;;;;;;;18.02;7.45;;;24.50;54.60;;;;;;5071580;28;20254;-73
2023/07/03 13:01:27;;;;;;;19.05;8.55;;;24.30;55.60;;;;;;5071345;28;20199;-73
2023/07/03 13:04:15;;;;;;;17.30;8.15;;;24.20;54.60;;;;;;5071439;28;20200;-72
2023/07/03 13:07:03;;;;;;;19.33;8.38;;;24.80;55.70;;;;;;5071377;28;20660;-72
2023/07/03 13:09:51;;;;;;;18.33;7.63;;;25.00;56.70;;;;;;5071988;28;20193;-72
2023/07/03 13:12:39;;;;;;;13.65;7.82;;;24.70;56.10;;;;;;5071880;28;20215;-73
2023/07/03 13:15:33;;;;;;;18.45;8.38;;;24.30;57.00;;;;;;5071513;28;20232;-70
2023/07/03 13:18:22;;;;;;;18.13;8.15;;;24.20;55.10;;;;;;5071395;28;20207;-70
2023/07/03 13:21:09;;;;;;;18.38;7.97;;;24.50;56.80;;;;;;5071169;28;20197;-72
2023/07/03 13:24:14;;;;;;;18.95;7.95;;;25.30;56.70;;;;;;5071255;28;20238;-72
2023/07/03 13:27:01;;;;;;;15.30;8.30;;;26.00;56.70;;;;;;5071559;28;20540;-71
2023/07/03 13:29:48;;;;;;;16.05;8.15;;;26.00;53.60;;;;;;5071232;28;20203;-72
2023/07/03 13:32:37;;;;;;;15.93;7.70;;;25.20;55.20;;;;;;5071113;28;20711;-75
2023/07/03 13:35:29;;;;;;;22.63;8.50;;;25.30;53.90;;;;;;5074146;28;20283;-72
2023/07/03 13:38:20;;;;;;;17.02;8.07;;;24.80;55.50;;;;;;5074591;28;20221;-74
2023/07/03 13:41:08;;;;;;;18.63;8.05;;;24.40;55.30;;;;;;5074553;28;20664;-72
2023/07/03 13:43:56;;;;;;;20.17;8.23;;;24.60;58.50;;;;;;5074569;28;20192;-71
2023/07/03 13:46:43;;;;;;;18.02;7.78;;;25.10;55.00;;;;;;5066807;28;20287;-75
2023/07/03 13:49:32;;;;;;;22.25;9.05;;;25.50;54.80;;;;;;5054812;28;20232;-71
2023/07/03 13:52:19;;;;;;;15.75;8.23;;;25.60;54.90;;;;;;5054989;28;20304;-74
2023/07/03 13:55:09;;;;;;;18.20;7.75;;;25.30;54.80;;;;;;5054953;28;20197;-72
2023/07/03 13:57:56;;;;;;;15.80;7.22;;;25.20;55.70;;;;;;5054877;28;20205;-72
2023/07/03 14:00:44;;;;;;;18.88;6.95;;;25.70;54.30;;;;;;5054852;28;20201;-74
2023/07/03 14:03:31;;;;;;;22.25;8.00;;;25.90;52.40;;;;;;5054776;28;20228;-74
2023/07/03 14:06:20;;;;;;;15.23;7.60;;;25.70;53.20;;;;;;5054753;28;20201;-76
2023/07/03 14:09:08;;;;;;;19.40;8.43;;;24.80;55.40;;;;;;5054615;28;20197;-71
2023/07/03 14:11:56;;;;;;;17.27;7.85;;;24.60;54.40;;;;;;5054535;28;20566;-73
2023/07/03 14:14:43;;;;;;;20.52;7.82;;;25.20;54.70;;;;;;5054587;28;20208;-72
2023/07/03 14:17:30;;;;;;;20.75;8.43;;;25.90;53.10;;;;;;5054488;28;20278;-72
2023/07/03 14:20:18;;;;;;;18.80;8.32;;;26.40;54.90;;;;;;5053940;28;20194;-73
2023/07/03 14:23:06;;;;;;;20.58;8.95;;;26.00;53.00;;;;;;5054387;28;20234;-72
2023/07/03 14:25:54;;;;;;;18.33;8.90;;;25.60;52.40;;;;;;5054403;28;20197;-71
2023/07/03 14:28:41;;;;;;;18.38;8.25;;;25.90;56.60;;;;;;5054332;28;20327;-73